createdAt,value
2019-04-29T00:00:07.659Z,18.20
2019-04-29T00:02:37.332Z,18.10
2019-04-29T00:05:06.886Z,18.00
2019-04-29T00:07:36.314Z,17.90
2019-04-29T00:10:07.949Z,17.80
2019-04-29T00:12:37.568Z,17.80
2019-04-29T00:15:08.159Z,17.90
2019-04-29T00:20:46.310Z,17.90
2019-04-29T00:23:16.047Z,17.60
2019-04-29T00:25:46.237Z,17.70
2019-04-29T00:28:15.597Z,17.60
2019-04-29T00:30:45.439Z,17.50
2019-04-29T00:33:14.979Z,17.50
2019-04-29T00:35:44.800Z,17.50
2019-04-29T00:38:15.659Z,17.50
2019-04-29T00:40:55.442Z,17.40
2019-04-29T00:43:35.612Z,17.40
2019-04-29T00:46:05.140Z,17.30
2019-04-29T00:48:34.535Z,17.10
2019-04-29T00:51:04.951Z,17.00
2019-04-29T00:53:34.560Z,17.00
2019-04-29T00:56:04.121Z,16.90
2019-04-29T00:58:33.425Z,16.90
2019-04-29T01:01:02.932Z,16.90
2019-04-29T01:03:32.352Z,16.90
2019-04-29T01:06:01.825Z,16.80
2019-04-29T01:08:31.697Z,16.70
2019-04-29T01:11:02.286Z,16.50
2019-04-29T01:13:31.520Z,16.50
2019-04-29T01:16:01.061Z,16.50
2019-04-29T01:18:30.613Z,16.60
2019-04-29T01:20:59.780Z,16.60
2019-04-29T01:23:29.340Z,16.50
2019-04-29T01:25:59.934Z,16.50
2019-04-29T01:28:39.639Z,16.50
2019-04-29T01:31:10.822Z,16.40
2019-04-29T01:33:40.211Z,16.40
2019-04-29T01:39:11.939Z,16.30
2019-04-29T01:41:44.663Z,16.30
2019-04-29T01:44:15.423Z,16.20
2019-04-29T01:46:44.725Z,16.10
2019-04-29T01:49:14.223Z,16.10
2019-04-29T01:51:43.687Z,16.10
2019-04-29T01:54:13.345Z,16.10
2019-04-29T01:56:42.846Z,16.10
2019-04-29T01:59:12.227Z,16.10
2019-04-29T02:01:41.628Z,16.10
2019-04-29T02:04:11.137Z,16.00
2019-04-29T02:06:40.727Z,15.90
2019-04-29T02:09:10.739Z,15.90
2019-04-29T02:11:40.268Z,15.90
2019-04-29T02:14:09.879Z,15.80
2019-04-29T02:16:39.400Z,15.80
2019-04-29T02:19:08.973Z,15.70
2019-04-29T02:21:38.503Z,15.70
2019-04-29T02:24:11.826Z,15.70
2019-04-29T02:26:41.309Z,15.70
2019-04-29T02:29:10.880Z,15.60
2019-04-29T02:31:41.407Z,15.70
2019-04-29T02:34:11.199Z,15.70
2019-04-29T02:36:41.602Z,15.60
2019-04-29T02:39:17.530Z,15.40
2019-04-29T02:44:42.166Z,15.20
2019-04-29T02:47:13.309Z,15.10
2019-04-29T02:49:42.806Z,15.00
2019-04-29T02:52:12.903Z,14.90
2019-04-29T02:54:43.386Z,14.80
2019-04-29T02:57:16.936Z,14.70
2019-04-29T02:59:47.629Z,14.70
2019-04-29T03:02:18.117Z,14.60
2019-04-29T03:05:05.665Z,14.50
2019-04-29T03:07:37.088Z,14.50
2019-04-29T03:10:08.926Z,14.40
2019-04-29T03:12:38.697Z,14.30
2019-04-29T03:15:11.410Z,14.20
2019-04-29T03:17:42.235Z,14.10
2019-04-29T03:20:16.101Z,14.00
2019-04-29T03:22:47.216Z,14.00
2019-04-29T03:25:16.673Z,13.90
2019-04-29T03:27:47.658Z,13.90
2019-04-29T03:30:18.152Z,13.80
2019-04-29T03:32:47.672Z,13.80
2019-04-29T03:35:18.963Z,13.70
2019-04-29T03:37:49.245Z,13.50
2019-04-29T03:40:18.689Z,13.50
2019-04-29T03:42:48.409Z,13.50
2019-04-29T03:45:19.238Z,13.30
2019-04-29T03:47:50.952Z,13.20
2019-04-29T03:50:20.480Z,13.00
2019-04-29T03:52:52.823Z,12.90
2019-04-29T03:55:38.125Z,12.80
2019-04-29T03:57:53.426Z,12.80
2019-04-29T04:00:22.793Z,12.70
2019-04-29T04:03:03.817Z,12.60
2019-04-29T04:05:44.585Z,12.50
2019-04-29T04:08:15.161Z,12.50
2019-04-29T04:10:44.534Z,12.40
2019-04-29T04:13:13.800Z,12.40
2019-04-29T04:15:43.170Z,12.30
2019-04-29T04:18:17.656Z,12.30
2019-04-29T04:20:47.446Z,12.30
2019-04-29T04:23:16.905Z,12.20
2019-04-29T04:25:46.620Z,12.20
2019-04-29T04:28:16.173Z,12.20
2019-04-29T04:30:45.651Z,12.10
2019-04-29T04:33:15.181Z,12.00
2019-04-29T04:35:45.571Z,12.00
2019-04-29T04:38:15.850Z,12.00
2019-04-29T04:40:45.796Z,12.00
2019-04-29T04:43:15.217Z,11.90
2019-04-29T04:45:51.871Z,11.80
2019-04-29T04:48:21.318Z,11.80
2019-04-29T04:50:50.995Z,11.80
2019-04-29T04:53:20.654Z,11.80
2019-04-29T04:55:50.271Z,11.80
2019-04-29T04:58:20.497Z,11.70
2019-04-29T05:00:50.622Z,11.70
2019-04-29T05:03:20.087Z,11.70
2019-04-29T05:05:49.921Z,11.60
2019-04-29T05:08:19.172Z,11.60
2019-04-29T05:10:48.730Z,11.60
2019-04-29T05:13:28.032Z,11.50
2019-04-29T05:15:47.958Z,11.60
2019-04-29T05:18:17.272Z,11.60
2019-04-29T05:20:46.952Z,11.60
2019-04-29T05:23:17.341Z,11.60
2019-04-29T05:25:47.009Z,11.60
2019-04-29T05:28:16.374Z,11.50
2019-04-29T05:30:45.611Z,11.50
2019-04-29T05:33:15.164Z,11.50
2019-04-29T05:35:48.820Z,11.40
2019-04-29T05:38:30.476Z,11.50
2019-04-29T05:40:59.920Z,11.40
2019-04-29T05:43:35.445Z,11.40
2019-04-29T05:46:07.911Z,11.40
2019-04-29T05:48:37.528Z,11.30
2019-04-29T05:51:09.791Z,11.30
2019-04-29T05:53:41.500Z,11.30
2019-04-29T05:56:10.659Z,11.20
2019-04-29T05:58:41.098Z,11.10
2019-04-29T06:01:10.876Z,11.10
2019-04-29T06:03:44.195Z,11.10
2019-04-29T06:06:12.363Z,11.10
2019-04-29T06:08:40.954Z,11.10
2019-04-29T06:11:11.402Z,11.00
2019-04-29T06:13:40.553Z,11.00
2019-04-29T06:16:10.363Z,11.00
2019-04-29T06:18:40.955Z,10.90
2019-04-29T06:21:10.518Z,10.90
2019-04-29T06:23:39.821Z,10.90
2019-04-29T06:26:09.418Z,10.80
2019-04-29T06:28:39.707Z,10.70
2019-04-29T06:31:09.370Z,10.70
2019-04-29T06:33:38.859Z,10.70
2019-04-29T06:36:09.122Z,10.70
2019-04-29T06:38:38.820Z,10.70
2019-04-29T06:41:09.706Z,10.70
2019-04-29T06:43:38.896Z,10.60
2019-04-29T06:46:08.519Z,10.60
2019-04-29T06:48:37.870Z,10.60
2019-04-29T06:51:07.416Z,10.60
2019-04-29T06:53:36.927Z,10.50
2019-04-29T06:56:08.925Z,10.40
2019-04-29T06:58:36.631Z,10.40
2019-04-29T07:01:05.594Z,10.30
2019-04-29T07:03:34.984Z,10.30
2019-04-29T07:06:05.896Z,10.30
2019-04-29T07:08:35.020Z,10.20
2019-04-29T07:11:04.700Z,10.20
2019-04-29T07:13:34.986Z,10.10
2019-04-29T07:16:04.356Z,10.10
2019-04-29T07:18:33.601Z,10.10
2019-04-29T07:21:02.871Z,10.10
2019-04-29T07:23:32.375Z,10.10
2019-04-29T07:26:02.119Z,10.00
2019-04-29T07:28:31.631Z,10.00
2019-04-29T07:31:02.649Z,10.00
2019-04-29T07:33:30.747Z,9.90
2019-04-29T07:36:10.355Z,9.80
2019-04-29T07:38:40.577Z,9.80
2019-04-29T07:40:59.931Z,9.70
2019-04-29T07:43:29.574Z,9.70
2019-04-29T07:46:09.699Z,9.70
2019-04-29T07:48:41.882Z,9.60
2019-04-29T07:51:09.643Z,9.60
2019-04-29T07:53:45.188Z,9.60
2019-04-29T07:56:09.650Z,9.50
2019-04-29T07:58:39.821Z,9.50
2019-04-29T08:01:09.107Z,9.50
2019-04-29T08:03:38.591Z,9.40
2019-04-29T08:06:08.242Z,9.40
2019-04-29T08:08:37.799Z,9.30
2019-04-29T08:11:07.282Z,9.20
2019-04-29T08:13:37.976Z,9.10
2019-04-29T08:16:07.736Z,9.10
2019-04-29T08:18:38.315Z,9.10
2019-04-29T08:21:10.270Z,9.10
2019-04-29T08:23:41.046Z,9.10
2019-04-29T08:26:07.094Z,9.00
2019-04-29T08:28:37.498Z,9.00
2019-04-29T08:31:06.961Z,8.90
2019-04-29T08:33:36.806Z,8.90
2019-04-29T08:36:06.389Z,8.90
2019-04-29T08:38:35.741Z,8.90
2019-04-29T08:41:06.506Z,8.90
2019-04-29T08:46:29.966Z,8.80
2019-04-29T08:49:01.143Z,8.80
2019-04-29T08:51:29.203Z,8.80
2019-04-29T08:53:58.690Z,8.80
2019-04-29T08:56:28.030Z,8.80
2019-04-29T08:58:57.720Z,8.80
2019-04-29T09:01:29.311Z,8.70
2019-04-29T09:03:59.122Z,8.70
2019-04-29T09:06:32.383Z,8.70
2019-04-29T09:08:59.569Z,8.50
2019-04-29T09:11:27.077Z,8.50
2019-04-29T09:13:56.382Z,8.40
2019-04-29T09:16:25.793Z,8.40
2019-04-29T09:18:55.132Z,8.40
2019-04-29T09:21:24.725Z,8.40
2019-04-29T09:23:54.351Z,8.40
2019-04-29T09:26:39.027Z,8.40
2019-04-29T09:29:15.379Z,8.50
2019-04-29T09:31:46.737Z,8.50
2019-04-29T09:34:14.639Z,8.50
2019-04-29T09:36:48.096Z,8.50
2019-04-29T09:39:13.718Z,8.50
2019-04-29T09:41:44.952Z,8.50
2019-04-29T09:44:19.156Z,8.40
2019-04-29T09:46:48.943Z,8.40
2019-04-29T09:49:18.361Z,8.40
2019-04-29T09:51:47.694Z,8.40
2019-04-29T09:54:17.229Z,8.40
2019-04-29T09:56:46.736Z,8.30
2019-04-29T09:59:22.178Z,8.30
2019-04-29T10:04:56.776Z,8.20
2019-04-29T10:07:22.200Z,8.10
2019-04-29T10:09:57.556Z,8.10
2019-04-29T10:12:21.552Z,8.10
2019-04-29T10:14:51.797Z,8.10
2019-04-29T10:17:25.936Z,8.10
2019-04-29T10:20:11.263Z,8.20
2019-04-29T10:22:40.783Z,8.20
2019-04-29T10:25:10.349Z,8.10
2019-04-29T10:27:39.802Z,8.00
2019-04-29T10:30:09.977Z,8.00
2019-04-29T10:32:42.336Z,7.90
2019-04-29T10:35:10.707Z,7.80
2019-04-29T10:37:40.460Z,7.60
2019-04-29T10:43:24.585Z,7.50
2019-04-29T10:46:04.675Z,7.50
2019-04-29T10:48:44.703Z,7.40
2019-04-29T10:51:14.299Z,7.40
2019-04-29T10:53:46.762Z,7.40
2019-04-29T10:56:13.849Z,7.40
2019-04-29T10:58:43.261Z,7.30
2019-04-29T11:04:23.028Z,7.20
2019-04-29T11:06:52.837Z,7.20
2019-04-29T11:09:28.259Z,7.20
2019-04-29T11:11:58.252Z,7.10
2019-04-29T11:14:27.716Z,7.10
2019-04-29T11:16:56.855Z,7.20
2019-04-29T11:19:26.300Z,7.20
2019-04-29T11:21:57.073Z,7.20
2019-04-29T11:24:40.749Z,7.20
2019-04-29T11:27:12.996Z,7.20
2019-04-29T11:29:42.422Z,7.20
2019-04-29T11:32:14.894Z,7.20
2019-04-29T11:34:48.390Z,7.20
2019-04-29T11:37:19.466Z,7.20
2019-04-29T11:39:50.351Z,7.10
2019-04-29T11:42:18.087Z,7.10
2019-04-29T11:44:47.476Z,7.10
2019-04-29T11:47:20.897Z,7.00
2019-04-29T11:49:48.017Z,7.00
2019-04-29T11:52:17.758Z,7.00
2019-04-29T11:54:47.283Z,7.00
2019-04-29T11:57:18.301Z,7.00
2019-04-29T11:59:51.605Z,7.00
2019-04-29T12:02:45.541Z,7.00
2019-04-29T12:05:08.606Z,7.00
2019-04-29T12:07:36.775Z,7.10
2019-04-29T12:10:06.920Z,7.10
2019-04-29T12:12:36.222Z,7.10
2019-04-29T12:15:13.731Z,7.10
2019-04-29T12:17:41.074Z,7.10
2019-04-29T12:20:11.420Z,7.10
2019-04-29T12:22:48.169Z,7.00
2019-04-29T12:25:10.530Z,6.90
2019-04-29T12:27:39.899Z,6.90
2019-04-29T12:30:09.798Z,6.90
2019-04-29T12:35:29.986Z,6.90
2019-04-29T12:38:05.876Z,6.90
2019-04-29T12:40:32.346Z,6.90
2019-04-29T12:43:16.242Z,7.00
2019-04-29T12:45:44.965Z,7.00
2019-04-29T12:48:24.546Z,7.00
2019-04-29T12:50:44.324Z,7.10
2019-04-29T12:53:13.844Z,7.10
2019-04-29T12:55:48.994Z,7.10
2019-04-29T12:58:14.105Z,7.20
2019-04-29T13:00:48.313Z,7.10
2019-04-29T13:03:16.482Z,7.00
2019-04-29T13:05:58.586Z,7.00
2019-04-29T13:08:27.033Z,6.90
2019-04-29T13:10:56.609Z,6.80
2019-04-29T13:13:25.905Z,6.80
2019-04-29T13:18:53.789Z,6.60
2019-04-29T13:21:19.918Z,6.50
2019-04-29T13:24:04.918Z,6.50
2019-04-29T13:26:28.001Z,6.50
2019-04-29T13:29:00.282Z,6.50
2019-04-29T13:31:20.279Z,6.60
2019-04-29T13:33:50.882Z,6.60
2019-04-29T13:36:19.733Z,6.70
2019-04-29T13:38:47.630Z,6.70
2019-04-29T13:41:23.395Z,6.70
2019-04-29T13:43:47.312Z,6.80
2019-04-29T13:46:19.699Z,6.90
2019-04-29T13:48:56.874Z,7.00
2019-04-29T13:54:14.487Z,7.20
2019-04-29T13:56:55.393Z,7.10
2019-04-29T13:59:18.615Z,7.10
2019-04-29T14:01:59.919Z,7.30
2019-04-29T14:04:24.849Z,7.50
2019-04-29T14:06:57.178Z,7.60
2019-04-29T14:09:24.203Z,7.60
2019-04-29T14:12:01.342Z,7.80
2019-04-29T14:14:24.493Z,7.90
2019-04-29T14:17:11.542Z,8.10
2019-04-29T14:19:40.449Z,8.30
2019-04-29T14:21:52.812Z,8.50
2019-04-29T14:24:22.215Z,8.70
2019-04-29T14:26:51.824Z,9.00
2019-04-29T14:29:22.952Z,9.30
2019-04-29T14:31:54.015Z,9.50
2019-04-29T14:34:22.278Z,9.80
2019-04-29T14:36:57.517Z,9.90
2019-04-29T14:39:36.126Z,10.10
2019-04-29T14:41:55.433Z,10.30
2019-04-29T14:44:30.158Z,11.10
2019-04-29T14:47:00.803Z,11.50
2019-04-29T14:49:30.533Z,12.10
2019-04-29T14:52:03.261Z,12.30
2019-04-29T14:54:30.199Z,12.60
2019-04-29T14:56:59.809Z,12.70
2019-04-29T14:59:29.554Z,12.70
2019-04-29T15:02:00.290Z,12.80
2019-04-29T15:04:31.725Z,12.80
2019-04-29T15:07:01.816Z,12.70
2019-04-29T15:09:31.089Z,12.70
2019-04-29T15:12:01.393Z,12.80
2019-04-29T15:14:36.689Z,13.00
2019-04-29T15:17:12.104Z,13.10
2019-04-29T15:19:49.445Z,13.40
2019-04-29T15:22:18.619Z,13.60
2019-04-29T15:24:47.971Z,13.60
2019-04-29T15:27:17.650Z,13.60
2019-04-29T15:29:47.072Z,13.60
2019-04-29T15:32:17.922Z,13.70
2019-04-29T15:34:48.187Z,13.90
2019-04-29T15:37:17.701Z,14.20
2019-04-29T15:39:47.894Z,14.20
2019-04-29T15:42:17.334Z,14.50
2019-04-29T15:44:46.825Z,14.50
2019-04-29T15:47:16.538Z,14.60
2019-04-29T15:49:46.346Z,14.70
2019-04-29T15:52:16.062Z,15.00
2019-04-29T15:54:45.927Z,15.30
2019-04-29T15:57:16.066Z,15.50
2019-04-29T15:59:49.170Z,16.10
2019-04-29T16:02:15.882Z,16.10
2019-04-29T16:04:48.120Z,16.00
2019-04-29T16:10:30.790Z,16.50
2019-04-29T16:13:12.123Z,16.60
2019-04-29T16:15:41.544Z,16.60
2019-04-29T16:18:14.833Z,16.50
2019-04-29T16:20:40.804Z,16.60
2019-04-29T16:23:10.288Z,17.00
2019-04-29T16:25:40.702Z,18.10
2019-04-29T16:28:09.545Z,21.00
2019-04-29T16:30:39.025Z,24.20
2019-04-29T16:33:13.910Z,27.00
2019-04-29T16:35:38.776Z,28.70
2019-04-29T16:38:11.516Z,28.60
2019-04-29T16:40:39.381Z,29.60
2019-04-29T16:43:27.657Z,30.50
2019-04-29T16:45:53.519Z,30.00
2019-04-29T16:48:22.980Z,28.40
2019-04-29T16:50:52.000Z,27.60
2019-04-29T16:53:21.532Z,26.50
2019-04-29T16:55:50.671Z,25.50
2019-04-29T16:58:20.727Z,29.10
2019-04-29T17:00:52.825Z,29.00
2019-04-29T17:03:20.294Z,30.90
2019-04-29T17:05:49.722Z,33.10
2019-04-29T17:08:19.419Z,34.80
2019-04-29T17:10:53.678Z,35.70
2019-04-29T17:13:23.952Z,37.90
2019-04-29T17:15:53.785Z,40.20
2019-04-29T17:18:22.611Z,41.60
2019-04-29T17:20:51.883Z,43.10
2019-04-29T17:23:24.399Z,44.00
2019-04-29T17:25:50.890Z,44.90
2019-04-29T17:28:25.577Z,44.90
2019-04-29T17:30:55.798Z,44.10
2019-04-29T17:33:31.708Z,42.30
2019-04-29T17:36:00.918Z,41.50
2019-04-29T17:38:30.240Z,41.90
2019-04-29T17:40:59.517Z,43.30
2019-04-29T17:43:38.196Z,44.20
2019-04-29T17:46:06.508Z,44.70
2019-04-29T17:51:35.825Z,43.60
2019-04-29T17:54:05.411Z,44.20
2019-04-29T17:56:36.633Z,45.80
2019-04-29T17:59:13.656Z,46.90
2019-04-29T18:01:45.203Z,47.30
2019-04-29T18:04:20.181Z,47.70
2019-04-29T18:07:10.414Z,47.50
2019-04-29T18:09:34.531Z,47.80
2019-04-29T18:12:05.307Z,47.80
2019-04-29T18:14:40.302Z,46.70
2019-04-29T18:17:05.009Z,46.20
2019-04-29T18:19:38.290Z,46.20
2019-04-29T18:22:22.801Z,46.20
2019-04-29T18:24:52.912Z,45.20
2019-04-29T18:27:25.307Z,41.90
2019-04-29T18:29:55.090Z,41.90
2019-04-29T18:32:35.029Z,42.00
2019-04-29T18:34:55.955Z,43.50
2019-04-29T18:37:24.996Z,43.40
2019-04-29T18:39:57.779Z,43.40
2019-04-29T18:42:23.953Z,42.50
2019-04-29T18:44:57.676Z,41.40
2019-04-29T18:47:27.084Z,42.20
2019-04-29T18:49:53.711Z,43.60
2019-04-29T18:52:26.525Z,44.00
2019-04-29T18:54:54.826Z,45.00
2019-04-29T18:57:28.597Z,45.00
2019-04-29T18:59:52.614Z,44.90
2019-04-29T19:02:22.025Z,44.70
2019-04-29T19:04:53.503Z,43.60
2019-04-29T19:07:21.374Z,40.60
2019-04-29T19:09:50.799Z,36.20
2019-04-29T19:12:21.165Z,33.00
2019-04-29T19:14:50.746Z,31.60
2019-04-29T19:17:21.659Z,30.20
2019-04-29T19:19:50.446Z,29.60
2019-04-29T19:22:19.865Z,28.80
2019-04-29T19:24:49.219Z,28.50
2019-04-29T19:27:18.704Z,28.00
2019-04-29T19:29:48.071Z,28.10
2019-04-29T19:32:18.902Z,28.00
2019-04-29T19:34:50.159Z,28.00
2019-04-29T19:37:17.934Z,28.00
2019-04-29T19:39:47.408Z,27.40
2019-04-29T19:42:28.650Z,26.50
2019-04-29T19:44:46.558Z,25.40
2019-04-29T19:47:16.737Z,24.50
2019-04-29T19:49:45.914Z,24.30
2019-04-29T19:52:18.795Z,24.70
2019-04-29T19:54:45.020Z,25.10
2019-04-29T19:57:15.198Z,24.50
2019-04-29T19:59:51.272Z,24.50
2019-04-29T20:02:16.423Z,24.10
2019-04-29T20:04:52.389Z,23.50
2019-04-29T20:07:19.006Z,23.00
2019-04-29T20:09:49.082Z,22.60
2019-04-29T20:12:18.547Z,22.30
2019-04-29T20:14:48.121Z,22.20
2019-04-29T20:17:23.309Z,22.10
2019-04-29T20:20:09.991Z,22.10
2019-04-29T20:22:43.447Z,22.10
2019-04-29T20:25:10.494Z,22.40
2019-04-29T20:27:41.797Z,22.40
2019-04-29T20:30:16.533Z,22.70
2019-04-29T20:32:40.049Z,22.80
2019-04-29T20:35:09.611Z,22.80
2019-04-29T20:37:39.325Z,23.10
2019-04-29T20:40:09.067Z,23.20
2019-04-29T20:42:40.484Z,23.10
2019-04-29T20:45:10.416Z,22.80
2019-04-29T20:47:41.928Z,22.80
2019-04-29T20:50:13.987Z,22.90
2019-04-29T20:52:46.463Z,22.80
2019-04-29T20:55:16.026Z,22.70
2019-04-29T20:57:47.940Z,22.40
2019-04-29T21:00:20.228Z,22.40
2019-04-29T21:02:48.524Z,22.20
2019-04-29T21:05:23.274Z,22.10
2019-04-29T21:07:49.091Z,21.90
2019-04-29T21:10:16.767Z,21.80
2019-04-29T21:12:50.087Z,22.10
2019-04-29T21:15:20.315Z,22.70
2019-04-29T21:17:50.658Z,23.00
2019-04-29T21:20:20.031Z,22.90
2019-04-29T21:22:52.459Z,22.90
2019-04-29T21:25:19.199Z,22.60
2019-04-29T21:27:48.653Z,22.40
2019-04-29T21:30:18.179Z,22.30
2019-04-29T21:32:47.747Z,22.20
2019-04-29T21:38:17.886Z,21.90
2019-04-29T21:40:52.274Z,22.20
2019-04-29T21:43:26.106Z,22.30
2019-04-29T21:45:55.624Z,22.50
2019-04-29T21:48:33.063Z,22.30
2019-04-29T21:50:54.995Z,21.80
2019-04-29T21:53:25.198Z,21.70
2019-04-29T21:55:55.439Z,21.50
2019-04-29T21:58:23.669Z,21.30
2019-04-29T22:00:55.913Z,21.10
2019-04-29T22:03:26.514Z,21.00
2019-04-29T22:05:53.602Z,21.00
2019-04-29T22:08:27.167Z,21.30
2019-04-29T22:10:53.509Z,21.30
2019-04-29T22:13:24.790Z,21.20
2019-04-29T22:15:52.764Z,21.30
2019-04-29T22:18:21.813Z,21.10
2019-04-29T22:20:51.089Z,21.00
2019-04-29T22:23:20.722Z,21.30
2019-04-29T22:25:50.017Z,21.50
2019-04-29T22:28:20.007Z,21.50
2019-04-29T22:30:54.212Z,21.40
2019-04-29T22:33:19.918Z,21.10
2019-04-29T22:35:49.794Z,20.90
2019-04-29T22:38:19.949Z,20.90
2019-04-29T22:40:49.288Z,20.70
2019-04-29T22:43:22.056Z,20.50
2019-04-29T22:45:52.343Z,20.20
2019-04-29T22:48:21.842Z,20.20
2019-04-29T22:50:51.174Z,20.00
2019-04-29T22:53:21.825Z,20.00
2019-04-29T22:55:51.372Z,19.90
2019-04-29T22:58:20.810Z,19.90
2019-04-29T23:00:50.206Z,19.70
2019-04-29T23:03:20.458Z,19.60
2019-04-29T23:05:49.667Z,19.60
2019-04-29T23:08:19.122Z,19.80
2019-04-29T23:10:48.539Z,20.00
2019-04-29T23:13:18.068Z,20.30
2019-04-29T23:15:47.378Z,20.50
2019-04-29T23:18:24.643Z,20.60
2019-04-29T23:20:52.057Z,20.60
2019-04-29T23:23:29.113Z,20.80
2019-04-29T23:25:59.980Z,21.00
2019-04-29T23:28:28.419Z,21.10
2019-04-29T23:30:57.694Z,21.10
2019-04-29T23:33:27.213Z,21.10
2019-04-29T23:35:56.768Z,21.10
2019-04-29T23:38:26.196Z,21.00
2019-04-29T23:40:56.419Z,20.90
2019-04-29T23:43:28.496Z,20.80
2019-04-29T23:45:56.978Z,20.60
2019-04-29T23:48:38.109Z,20.30
2019-04-29T23:50:58.187Z,20.30
2019-04-29T23:53:26.618Z,20.20
2019-04-29T23:56:00.249Z,20.20
2019-04-29T23:58:32.599Z,20.00
